Stamford, VT (05352)

1:56 PM EDT on August 04, 2015 (GMT -0400)
Route 8 - 0.6 mile south of Vermont border | | Change Station
CLOSE
Current Station
Personal Weather Station
Location: Clarksburg, MA
Elevation: 1090 ft
Nearby Weather Stations
Active Advisory: Severe Thunderstorm Watch

Elev 1090 ft 42.73 °N, 73.07 °W | Updated 2 minutes ago

Mostly Cloudy
Mostly Cloudy
74.5 °F
Feels Like 76 °F
N
1.0
Wind Variable Wind from SE
Gusts 3.0 mph

Today
High -- | Low -- °F
--% Chance of Precip.
Yesterday
High -- | Low -- °F
Precip. -- in
5:46 AM 8:09 PM
Waning Gibbous, 76% visible
Pressure 29.82 in
Visibility 10.0 miles
Clouds Few 4900 ft
Scattered Clouds 9000 ft
Heat Index 76 °F
Dew Point 66 °F
Humidity 76%
Rainfall -999.00 in
Snow Depth Not available.
UV 8 out of 12
Pollen 7.40 out of 12
Air Quality Not available.
Flu Activity Not available.
METAR KAQW 041752Z AUTO 00000KT 10SM FEW049 SCT090 25/21 A2983 RMK AO2 LTG DSNT E-SW RAE39 SLP098 P0001 60002 T02500206 10272 20189 56007

More Conditions Fewer Conditions

Pressure 29.82 in
Visibility 10.0 miles
Clouds Few 4900 ft
Scattered Clouds 9000 ft
Heat Index 76 °F
Dew Point 66 °F
Humidity 76%
Rainfall -999.00 in
Snow Depth Not available.
UV 8 out of 12
Pollen 7.40 out of 12
Air Quality Not available.
Flu Activity Not available.
METAR KAQW 041752Z AUTO 00000KT 10SM FEW049 SCT090 25/21 A2983 RMK AO2 LTG DSNT E-SW RAE39 SLP098 P0001 60002 T02500206 10272 20189 56007

More Conditions Fewer Conditions

10-Day Weather Forecast

×

Almanac

Astronomy

Aug. 04, 2015 Rise Set
Actual Time
Civil Twilight
Nautical Twilight
Astronomical Twilight
Moon
Length of Visible Light
Length of Day
Tomorrow will be .
, % of the Moon is Illuminated

Today's Extremes

State Highs State Lows

Community

WunderPhotos

Upload Photos

1,843,927 photos uploaded!

WunderBlogs® & News

Nearby

Air Quality

  Air Quality AQ Index Pollutant
Not available.

Snow Depth

Station Depth Elevation

Earthquake Activity

City Distance Mag. Time & Date
Minimum magnitude displayed is 2.5.

Coastal Water Temperatures

Place Temperature

Stations

Nearby Weather Stations

Station Location Temp. Windchill Dew Point Humidity Wind Precip. Elev Updated Type
                   
Severe Thunderstorm Watch
Statement as of 1:43 PM EDT on August 04, 2015

Severe Thunderstorm Watch 469 remains in effect until 800 PM EDT

VT
. Vermont counties included are

Addison Bennington Caledonia
Chittenden Essex Franklin
LaMoille Orange Orleans
Rutland Washington Windham
Windsor